createdAt,value
2018-09-12T00:00:05.494Z,5.76
2018-09-12T00:06:00.474Z,5.93
2018-09-12T00:11:55.448Z,5.86
2018-09-12T00:17:50.495Z,5.88
2018-09-12T00:23:45.442Z,5.57
2018-09-12T00:29:40.435Z,5.6
2018-09-12T00:35:35.500Z,5.74
2018-09-12T00:41:30.443Z,6.79
2018-09-12T00:47:25.477Z,6.37
2018-09-12T00:53:20.463Z,6.38
2018-09-12T00:59:15.517Z,6.38
2018-09-12T01:05:10.487Z,6.49
2018-09-12T01:11:05.455Z,7.15
2018-09-12T01:17:00.476Z,7.26
2018-09-12T01:22:55.511Z,6.96
2018-09-12T01:28:50.516Z,6.83
2018-09-12T01:34:45.497Z,7.4
2018-09-12T01:40:40.499Z,7.11
2018-09-12T01:46:35.489Z,7.03
2018-09-12T01:52:30.496Z,7.1
2018-09-12T01:58:25.510Z,7.15
2018-09-12T02:04:20.527Z,6.43
2018-09-12T02:10:15.523Z,5.27
2018-09-12T02:16:10.529Z,5.88
2018-09-12T02:22:05.521Z,6.01
2018-09-12T02:28:00.526Z,5.95
2018-09-12T02:33:55.538Z,5.66
2018-09-12T02:39:50.551Z,6
2018-09-12T02:45:45.552Z,5.81
2018-09-12T02:51:40.614Z,5.71
2018-09-12T02:57:35.545Z,5.86
2018-09-12T03:03:30.563Z,6.66
2018-09-12T03:09:25.574Z,5.94
2018-09-12T03:15:20.559Z,6.03
2018-09-12T03:21:15.583Z,5.88
2018-09-12T03:27:10.581Z,6.09
2018-09-12T03:33:05.564Z,6.72
2018-09-12T03:39:00.598Z,6.41
2018-09-12T03:44:55.643Z,6.56
2018-09-12T03:50:50.602Z,6.84
2018-09-12T03:56:45.794Z,6.43
2018-09-12T04:02:40.680Z,7.11
2018-09-12T04:08:35.636Z,6.64
2018-09-12T04:14:30.602Z,6.5
2018-09-12T04:20:25.624Z,6.61
2018-09-12T04:26:20.608Z,6.35
2018-09-12T04:32:15.613Z,6.87
2018-09-12T04:38:10.615Z,6.13
2018-09-12T04:44:05.626Z,6.2
2018-09-12T04:50:00.636Z,6.77
2018-09-12T04:55:55.631Z,6.98
2018-09-12T05:01:50.699Z,6.84
2018-09-12T05:07:45.647Z,7.42
2018-09-12T05:13:40.642Z,6.81
2018-09-12T05:19:35.647Z,6.89
2018-09-12T05:25:30.639Z,6.8
2018-09-12T05:31:25.676Z,7.02
2018-09-12T05:37:20.693Z,6.49
2018-09-12T05:43:15.670Z,6.5
2018-09-12T05:49:10.671Z,6.89
2018-09-12T05:55:05.679Z,8.73
2018-09-12T06:01:00.693Z,7.02
2018-09-12T06:06:55.802Z,7.85
2018-09-12T06:12:50.750Z,9.26
2018-09-12T06:18:45.710Z,8.78
2018-09-12T06:24:40.718Z,10.5
2018-09-12T06:30:35.725Z,9.08
2018-09-12T06:36:30.717Z,8.66
2018-09-12T06:42:25.740Z,7.93
2018-09-12T06:48:20.731Z,8.42
2018-09-12T06:54:15.718Z,8.82
2018-09-12T07:00:10.851Z,8.25
2018-09-12T07:06:05.735Z,10.17
2018-09-12T07:12:00.745Z,10.91
2018-09-12T07:17:55.738Z,12.1
2018-09-12T07:23:50.738Z,13.6
2018-09-12T07:29:45.751Z,12.61
2018-09-12T07:35:40.751Z,12.08
2018-09-12T07:41:35.838Z,10.99
2018-09-12T07:47:30.813Z,10.15
2018-09-12T07:53:25.763Z,9.51
2018-09-12T07:59:20.773Z,4.76
2018-09-12T08:05:15.833Z,9.26
2018-09-12T08:11:10.815Z,8.76
2018-09-12T08:17:05.869Z,8.59
2018-09-12T08:23:00.783Z,8.22
2018-09-12T08:28:55.784Z,8.1
2018-09-12T08:34:50.780Z,8.22
2018-09-12T08:40:45.826Z,7.63
2018-09-12T08:46:40.813Z,7.04
2018-09-12T08:52:35.833Z,7.33
2018-09-12T08:58:31.390Z,7.46
2018-09-12T09:04:25.811Z,8.02
2018-09-12T09:10:20.898Z,6.98
2018-09-12T09:16:15.883Z,7.92
2018-09-12T09:22:10.896Z,6.69
2018-09-12T09:28:05.870Z,6.37
2018-09-12T09:34:00.919Z,6.61
2018-09-12T09:39:55.863Z,5.84
2018-09-12T09:45:50.871Z,6.38
2018-09-12T09:51:45.926Z,6.2
2018-09-12T09:57:40.882Z,6.09
2018-09-12T10:03:35.912Z,5.42
2018-09-12T10:09:30.935Z,5.47
2018-09-12T10:15:26.415Z,4.97
2018-09-12T10:21:20.929Z,4.7
2018-09-12T10:27:15.905Z,4.91
2018-09-12T10:33:10.915Z,4.33
2018-09-12T10:39:05.941Z,5.5
2018-09-12T10:45:01.574Z,5.49
2018-09-12T10:50:55.975Z,6.27
2018-09-12T10:56:50.946Z,4.99
2018-09-12T11:02:45.938Z,4.44
2018-09-12T11:08:40.933Z,3.84
2018-09-12T11:14:35.987Z,3.46
2018-09-12T11:20:30.992Z,2.97
2018-09-12T11:26:25.963Z,3.16
2018-09-12T11:32:20.963Z,3.34
2018-09-12T11:38:16.042Z,3.59
2018-09-12T11:44:10.967Z,3.92
2018-09-12T11:50:06.010Z,3.75
2018-09-12T11:56:00.981Z,3.47
2018-09-12T12:01:55.999Z,4.17
2018-09-12T12:07:51.025Z,3.03
2018-09-12T12:13:45.989Z,3.95
2018-09-12T12:19:41.030Z,3.47
2018-09-12T12:25:36.041Z,3.27
2018-09-12T12:31:31.040Z,3.15
2018-09-12T12:37:26.019Z,3.24
2018-09-12T12:43:21.032Z,3.54
2018-09-12T12:49:16.065Z,3.46
2018-09-12T12:55:11.060Z,3.01
2018-09-12T13:01:06.025Z,3.28
2018-09-12T13:07:01.104Z,12.74
2018-09-12T13:12:56.065Z,3.02
2018-09-12T13:18:51.071Z,2.45
2018-09-12T13:24:46.055Z,4.08
2018-09-12T13:30:41.136Z,1.6
2018-09-12T13:36:36.075Z,2.2
2018-09-12T13:42:31.088Z,1.88
2018-09-12T13:48:26.112Z,4.5
2018-09-12T13:54:21.144Z,17.48
2018-09-12T14:00:16.073Z,2.19
2018-09-12T14:06:11.152Z,2.52
2018-09-12T14:12:06.116Z,2.83
2018-09-12T14:18:01.155Z,5.16
2018-09-12T14:23:56.118Z,3.3
2018-09-12T14:29:51.155Z,3.77
2018-09-12T14:35:46.146Z,3.8
2018-09-12T14:41:41.139Z,4.17
2018-09-12T14:47:36.137Z,3.36
2018-09-12T14:53:31.198Z,3.72
2018-09-12T14:59:26.198Z,3.41
2018-09-12T15:05:21.158Z,3.07
2018-09-12T15:11:16.159Z,3.16
2018-09-12T15:17:11.162Z,2.81
2018-09-12T15:23:06.179Z,2.96
2018-09-12T15:29:01.181Z,2.36
2018-09-12T15:34:56.201Z,2.41
2018-09-12T15:40:51.178Z,2
2018-09-12T15:46:46.178Z,2.19
2018-09-12T15:52:41.201Z,2.22
2018-09-12T15:58:36.227Z,2.6
2018-09-12T16:04:31.209Z,2.52
2018-09-12T16:10:26.239Z,2.49
2018-09-12T16:16:21.226Z,2.84
2018-09-12T16:22:16.234Z,2.61
2018-09-12T16:28:11.222Z,2.75
2018-09-12T16:34:07.116Z,2.64
2018-09-12T16:40:01.317Z,2.92
2018-09-12T16:45:56.235Z,2.6
2018-09-12T16:51:51.270Z,2.98
2018-09-12T16:57:46.306Z,3.1
2018-09-12T17:03:41.268Z,3.25
2018-09-12T17:09:36.248Z,3.83
2018-09-12T17:15:31.268Z,4.7
2018-09-12T17:21:26.293Z,3.97
2018-09-12T17:27:21.290Z,3.79
2018-09-12T17:33:16.265Z,3.67
2018-09-12T17:39:11.277Z,3.3
2018-09-12T17:45:06.304Z,4.11
2018-09-12T17:51:01.310Z,4.59
2018-09-12T17:56:56.324Z,3.98
2018-09-12T18:02:51.354Z,4.49
2018-09-12T18:08:46.325Z,4
2018-09-12T18:14:41.333Z,4.43
2018-09-12T18:20:36.323Z,4.29
2018-09-12T18:26:31.334Z,4.25
2018-09-12T18:32:26.385Z,4.33
2018-09-12T18:38:21.387Z,4.37
2018-09-12T18:44:16.341Z,4.68
2018-09-12T18:50:11.345Z,4.21
2018-09-12T18:56:06.358Z,4.91
2018-09-12T19:02:01.415Z,4.69
2018-09-12T19:07:56.400Z,5.27
2018-09-12T19:13:51.381Z,5.06
2018-09-12T19:19:46.368Z,6.97
2018-09-12T19:25:41.392Z,6.32
2018-09-12T19:31:36.428Z,5.4
2018-09-12T19:37:31.391Z,6.8
2018-09-12T19:43:26.481Z,7.51
2018-09-12T19:49:21.391Z,6.48
2018-09-12T19:55:16.400Z,7.17
2018-09-12T20:01:11.414Z,7.05
2018-09-12T20:07:06.407Z,6.98
2018-09-12T20:13:01.417Z,6.76
2018-09-12T20:18:56.435Z,7.87
2018-09-12T20:24:51.430Z,6.59
2018-09-12T20:30:46.449Z,8.05
2018-09-12T20:36:41.437Z,6.41
2018-09-12T20:42:36.453Z,6.23
2018-09-12T20:48:31.475Z,6.7
2018-09-12T20:54:26.448Z,6.47
2018-09-12T21:00:21.449Z,5.87
2018-09-12T21:06:16.460Z,5.91
2018-09-12T21:12:11.466Z,5.8
2018-09-12T21:18:07.169Z,6.4
2018-09-12T21:24:01.464Z,7.54
2018-09-12T21:29:56.514Z,5.99
2018-09-12T21:35:51.536Z,5.95
2018-09-12T21:41:46.498Z,6.5
2018-09-12T21:47:41.568Z,6.71
2018-09-12T21:53:36.499Z,6.31
2018-09-12T21:59:31.501Z,6.75
2018-09-12T22:05:26.495Z,6.6
2018-09-12T22:11:21.504Z,6.58
2018-09-12T22:17:16.536Z,6.63
2018-09-12T22:23:11.538Z,6.37
2018-09-12T22:29:06.549Z,7.37
2018-09-12T22:35:01.565Z,7.12
2018-09-12T22:40:56.545Z,6.57
2018-09-12T22:46:51.535Z,7.28
2018-09-12T22:52:46.541Z,6.33
2018-09-12T22:58:41.561Z,7.11
2018-09-12T23:04:36.575Z,6.67
2018-09-12T23:10:31.581Z,7.51
2018-09-12T23:16:26.593Z,6.89
2018-09-12T23:22:21.584Z,6.4
2018-09-12T23:28:16.635Z,7.68
2018-09-12T23:34:11.585Z,6.9
2018-09-12T23:40:06.656Z,7.03
2018-09-12T23:46:01.617Z,6.29
2018-09-12T23:51:56.574Z,6.34
2018-09-12T23:57:51.602Z,6.27
